createdAt,value
2022-12-28T00:00:34.050Z,69.37
2022-12-28T00:05:35.684Z,68.93
2022-12-28T00:11:07.751Z,68.74
2022-12-28T00:16:03.382Z,68.66
2022-12-28T00:21:05.796Z,69.02
2022-12-28T00:26:08.545Z,68.83
2022-12-28T00:31:10.245Z,68.26
2022-12-28T00:36:13.720Z,68.59
2022-12-28T00:41:16.309Z,69.02
2022-12-28T00:46:17.960Z,68.59
2022-12-28T00:51:20.013Z,69.26
2022-12-28T00:56:22.695Z,69.82
2022-12-28T01:01:25.488Z,70.10
2022-12-28T01:06:29.532Z,71.29
2022-12-28T01:11:32.512Z,71.79
2022-12-28T01:16:36.201Z,71.12
2022-12-28T01:21:37.821Z,71.48
2022-12-28T01:26:39.384Z,72.07
2022-12-28T01:31:41.074Z,71.71
2022-12-28T01:36:42.708Z,72.52
2022-12-28T01:41:44.289Z,71.44
2022-12-28T01:46:53.488Z,71.49
2022-12-28T01:52:11.837Z,71.27
2022-12-28T01:57:14.450Z,71.25
2022-12-28T02:02:16.429Z,71.85
2022-12-28T02:07:36.691Z,71.85
2022-12-28T02:12:38.900Z,72.12
2022-12-28T02:17:41.516Z,72.43
2022-12-28T02:23:18.458Z,72.55
2022-12-28T02:28:53.909Z,72.45
2022-12-28T02:34:32.022Z,72.57
2022-12-28T02:39:51.485Z,72.95
2022-12-28T02:45:11.412Z,73.13
2022-12-28T02:50:15.803Z,73.86
2022-12-28T02:55:44.511Z,73.67
2022-12-28T03:00:49.613Z,72.85
2022-12-28T03:06:33.608Z,72.82
2022-12-28T03:11:43.531Z,73.31
2022-12-28T03:17:05.724Z,73.42
2022-12-28T03:22:27.568Z,73.62
2022-12-28T03:27:49.063Z,73.52
2022-12-28T03:32:54.628Z,74.41
2022-12-28T03:38:02.671Z,73.61
2022-12-28T03:43:29.525Z,73.47
2022-12-28T03:48:32.819Z,73.25
2022-12-28T03:53:43.596Z,73.53
2022-12-28T03:58:48.559Z,73.12
2022-12-28T04:03:52.804Z,73.04
2022-12-28T04:08:54.673Z,73.07
2022-12-28T04:13:59.489Z,72.82
2022-12-28T04:19:07.663Z,73.58
2022-12-28T04:24:09.317Z,73.38
2022-12-28T04:29:11.731Z,72.72
2022-12-28T04:34:34.988Z,72.50
2022-12-28T04:39:55.202Z,72.06
2022-12-28T04:44:58.666Z,71.62
2022-12-28T04:50:00.232Z,72.15
2022-12-28T04:55:01.785Z,71.89
2022-12-28T05:00:03.951Z,71.32
2022-12-28T05:05:05.742Z,71.60
2022-12-28T05:10:07.652Z,70.76
2022-12-28T05:15:09.689Z,70.99
2022-12-28T05:20:11.725Z,71.29
2022-12-28T05:25:13.353Z,71.02
2022-12-28T05:30:15.025Z,71.47
2022-12-28T05:35:16.722Z,71.34
2022-12-28T05:40:18.296Z,72.13
2022-12-28T05:45:19.928Z,72.10
2022-12-28T05:50:21.528Z,72.16
2022-12-28T05:55:23.099Z,71.82
2022-12-28T06:00:24.674Z,71.99
2022-12-28T06:05:27.141Z,71.41
2022-12-28T06:10:28.730Z,71.78
2022-12-28T06:15:30.296Z,71.45
2022-12-28T06:20:31.878Z,71.29
2022-12-28T06:25:33.511Z,70.94
2022-12-28T06:30:35.103Z,71.03
2022-12-28T06:35:41.128Z,70.98
2022-12-28T06:41:13.045Z,70.59
2022-12-28T06:46:04.954Z,70.22
2022-12-28T06:51:30.139Z,70.54
2022-12-28T06:56:33.173Z,70.83
2022-12-28T07:01:40.038Z,71.01
2022-12-28T07:06:43.416Z,70.44
2022-12-28T07:11:45.414Z,70.61
2022-12-28T07:16:48.089Z,70.50
2022-12-28T07:21:50.231Z,70.20
2022-12-28T07:26:51.854Z,70.25
2022-12-28T07:31:53.432Z,70.05
2022-12-28T07:36:55.041Z,69.61
2022-12-28T07:41:56.701Z,69.94
2022-12-28T07:46:58.392Z,69.46
2022-12-28T07:52:00.052Z,69.25
2022-12-28T07:57:01.657Z,69.71
2022-12-28T08:02:03.442Z,69.62
2022-12-28T08:07:05.243Z,70.19
2022-12-28T08:12:07.054Z,69.99
2022-12-28T08:17:08.692Z,69.96
2022-12-28T08:22:10.321Z,69.89
2022-12-28T08:27:13.001Z,70.03
2022-12-28T08:32:14.613Z,69.88
2022-12-28T08:37:16.192Z,70.21
2022-12-28T08:42:17.797Z,69.81
2022-12-28T08:47:19.392Z,70.31
2022-12-28T08:52:21.072Z,69.94
2022-12-28T08:57:22.699Z,69.36
2022-12-28T09:02:24.429Z,69.62
2022-12-28T09:07:26.183Z,69.68
2022-12-28T09:12:27.801Z,69.43
2022-12-28T09:17:29.346Z,69.12
2022-12-28T09:22:31.555Z,69.32
2022-12-28T09:27:33.153Z,69.34
2022-12-28T09:32:34.775Z,69.77
2022-12-28T09:37:36.337Z,69.80
2022-12-28T09:42:39.248Z,69.68
2022-12-28T09:47:52.162Z,69.51
2022-12-28T09:53:05.563Z,69.59
2022-12-28T09:58:14.401Z,69.61
2022-12-28T10:03:20.386Z,69.91
2022-12-28T10:08:22.854Z,70.01
2022-12-28T10:18:50.663Z,70.14
2022-12-28T10:24:29.770Z,70.21
2022-12-28T10:29:21.189Z,70.27
2022-12-28T10:34:22.840Z,69.42
2022-12-28T10:39:27.163Z,69.21
2022-12-28T10:44:40.159Z,69.85
2022-12-28T10:50:02.762Z,69.44
2022-12-28T10:55:33.593Z,69.52
2022-12-28T11:00:35.340Z,69.25
2022-12-28T11:05:37.072Z,68.46
2022-12-28T11:10:40.354Z,68.67
2022-12-28T11:15:44.119Z,67.96
2022-12-28T11:20:52.102Z,68.52
2022-12-28T11:25:54.015Z,68.83
2022-12-28T11:30:56.030Z,68.76
2022-12-28T11:35:59.996Z,69.05
2022-12-28T11:41:02.181Z,69.28
2022-12-28T11:46:05.095Z,68.85
2022-12-28T11:51:14.689Z,67.89
2022-12-28T11:56:18.488Z,68.20
2022-12-28T12:01:36.704Z,68.48
2022-12-28T12:06:44.778Z,67.98
2022-12-28T12:11:47.899Z,68.13
2022-12-28T12:16:57.081Z,68.27
2022-12-28T12:22:13.045Z,68.70
2022-12-28T12:27:18.576Z,69.01
2022-12-28T12:32:27.859Z,69.16
2022-12-28T12:37:51.007Z,68.34
2022-12-28T12:43:16.654Z,69.42
2022-12-28T12:48:37.661Z,68.63
2022-12-28T12:53:58.097Z,68.46
2022-12-28T12:59:25.705Z,67.69
2022-12-28T13:04:29.846Z,67.41
2022-12-28T13:09:33.300Z,67.44
2022-12-28T13:14:35.545Z,67.58
2022-12-28T13:19:37.150Z,67.42
2022-12-28T13:24:45.811Z,67.54
2022-12-28T13:29:54.253Z,67.29
2022-12-28T13:34:55.883Z,66.98
2022-12-28T13:40:15.931Z,67.67
2022-12-28T13:45:19.687Z,67.99
2022-12-28T13:50:24.897Z,68.64
2022-12-28T13:55:36.617Z,68.33
2022-12-28T14:00:38.941Z,68.80
2022-12-28T14:05:45.591Z,68.77
2022-12-28T14:10:47.671Z,68.10
2022-12-28T14:15:49.919Z,68.94
2022-12-28T14:20:53.627Z,68.61
2022-12-28T14:25:58.065Z,68.79
2022-12-28T14:30:59.830Z,67.87
2022-12-28T14:36:03.588Z,67.77
2022-12-28T14:41:05.714Z,67.29
2022-12-28T14:46:34.750Z,67.48
2022-12-28T14:51:41.111Z,67.17
2022-12-28T14:57:06.311Z,67.27
2022-12-28T15:02:34.224Z,66.92
2022-12-28T15:07:35.936Z,67.39
2022-12-28T15:12:38.215Z,67.31
2022-12-28T15:17:39.810Z,67.01
2022-12-28T15:22:41.469Z,67.63
2022-12-28T15:27:43.080Z,67.88
2022-12-28T15:32:44.993Z,68.31
2022-12-28T15:37:46.795Z,68.20
2022-12-28T15:42:48.465Z,68.56
2022-12-28T15:47:53.270Z,68.86
2022-12-28T15:52:54.924Z,68.86
2022-12-28T15:57:56.525Z,68.97
2022-12-28T16:02:58.310Z,69.10
2022-12-28T16:08:00.033Z,69.40
2022-12-28T16:13:01.659Z,69.87
2022-12-28T16:18:03.443Z,69.84
2022-12-28T16:23:05.176Z,70.28
2022-12-28T16:28:06.726Z,69.93
2022-12-28T16:33:08.301Z,69.84
2022-12-28T16:38:09.868Z,70.06
2022-12-28T16:43:12.388Z,70.62
2022-12-28T16:48:15.748Z,71.11
2022-12-28T16:53:22.798Z,71.14
2022-12-28T16:58:26.162Z,70.83
2022-12-28T17:03:27.802Z,71.11
2022-12-28T17:08:29.576Z,71.12
2022-12-28T17:13:31.240Z,70.70
2022-12-28T17:18:32.937Z,71.06
2022-12-28T17:23:34.522Z,70.61
2022-12-28T17:28:36.075Z,70.93
2022-12-28T17:33:40.041Z,71.00
2022-12-28T17:38:42.019Z,70.84
2022-12-28T17:43:51.651Z,71.26
2022-12-28T17:48:54.321Z,70.86
2022-12-28T17:53:57.019Z,71.27
2022-12-28T17:58:59.190Z,71.24
2022-12-28T18:04:01.278Z,70.96
2022-12-28T18:09:03.097Z,71.14
2022-12-28T18:14:04.869Z,71.07
2022-12-28T18:19:06.452Z,71.33
2022-12-28T18:24:11.864Z,70.92
2022-12-28T18:29:13.449Z,70.96
2022-12-28T18:34:15.161Z,70.64
2022-12-28T18:39:16.792Z,70.98
2022-12-28T18:44:18.853Z,71.55
2022-12-28T18:49:21.616Z,71.36
2022-12-28T18:54:23.303Z,71.53
2022-12-28T18:59:25.039Z,71.57
2022-12-28T19:04:26.916Z,71.24
2022-12-28T19:09:28.698Z,71.52
2022-12-28T19:14:30.311Z,71.94
2022-12-28T19:19:31.845Z,71.33
2022-12-28T19:24:33.416Z,71.54
2022-12-28T19:29:35.082Z,71.89
2022-12-28T19:34:36.694Z,72.62
2022-12-28T19:39:38.293Z,72.74
2022-12-28T19:44:40.836Z,72.83
2022-12-28T19:49:42.423Z,73.08
2022-12-28T19:54:44.022Z,72.44
2022-12-28T19:59:45.606Z,72.50
2022-12-28T20:04:47.171Z,72.34
2022-12-28T20:09:51.821Z,72.67
2022-12-28T20:14:53.468Z,71.80
2022-12-28T20:19:55.065Z,72.01
2022-12-28T20:24:56.631Z,71.85
2022-12-28T20:29:58.481Z,71.54
2022-12-28T20:35:00.129Z,71.56
2022-12-28T20:40:02.295Z,71.67
2022-12-28T20:45:04.437Z,71.89
2022-12-28T20:50:06.662Z,71.63
2022-12-28T20:55:09.751Z,71.88
2022-12-28T21:00:12.025Z,71.81
2022-12-28T21:05:13.924Z,71.63
2022-12-28T21:10:15.608Z,71.68
2022-12-28T21:15:17.320Z,71.81
2022-12-28T21:20:18.949Z,72.43
2022-12-28T21:25:20.626Z,72.08
2022-12-28T21:30:22.191Z,72.01
2022-12-28T21:35:27.741Z,71.73
2022-12-28T21:40:32.086Z,71.66
2022-12-28T21:45:33.787Z,71.48
2022-12-28T21:50:35.431Z,71.74
2022-12-28T21:55:42.543Z,70.95
2022-12-28T22:01:02.903Z,70.98
2022-12-28T22:06:07.303Z,70.93
2022-12-28T22:11:30.030Z,71.27
2022-12-28T22:16:33.328Z,71.36
2022-12-28T22:21:36.030Z,71.64
2022-12-28T22:26:37.657Z,71.12
2022-12-28T22:31:40.207Z,70.70
2022-12-28T22:36:41.811Z,70.94
2022-12-28T22:41:43.476Z,70.92
2022-12-28T22:46:45.144Z,70.49
2022-12-28T22:51:47.586Z,70.28
2022-12-28T22:56:49.207Z,70.61
2022-12-28T23:01:51.304Z,70.44
2022-12-28T23:06:54.024Z,70.40
2022-12-28T23:11:58.088Z,70.58
2022-12-28T23:17:00.180Z,70.77
2022-12-28T23:22:21.805Z,70.56
2022-12-28T23:27:24.462Z,70.19
2022-12-28T23:32:26.038Z,70.48
2022-12-28T23:37:27.995Z,69.84
2022-12-28T23:42:29.735Z,70.33
2022-12-28T23:47:31.722Z,70.69
2022-12-28T23:52:33.761Z,70.47
2022-12-28T23:57:35.466Z,70.03
